Terminal Aerodrome Forecast
Issued by NWS Cleveland, OH

Home | Current Version | Previous Version | Graphics & Text | Print | Product List | Glossary On
Versions: 1 2 3 4 5 6 7 8 9 10 11 12 13 14 15 16
000
FTUS41 KCLE 242336
TAFYNG
TAF
KYNG 242336Z 2500/2524 19012KT P6SM SCT045 BKN200
     FM250600 19014KT P6SM -SHRA VCTS SCT045CB BKN150
      TEMPO 2508/2512 26020G40KT 3SM TSRA BKN015CB
     FM251200 23012KT P6SM VCSH OVC020
     FM251500 26015G25KT P6SM BKN025=

USA.gov is the U.S. government's official web portal to all federal, state and local government web resources and services.